Главная страница
METAR-TAF:

METAR-TAF

Аэропорты :

Синоп, Турция

широта: 42-00-57N, долгота: 035-03-59E, высота над уровнем моря: 7 м

Текущие метеонаблюдения

Эта сводка был подготовлена 34 минут назад, в 09:50 UTC
Ветер 12 Узел от восточно-юго-восточный
Температура 10°C
Влажность 57%
Давление 1023 hPa
Видимость 10 км и более
Нет облачности ниже 1500 м, и нет кучево-дождевой облачности

METAR: LTCM 230950Z 11012KT CAVOK 10/02 Q1023

Время: 13:24 (10:24 UTC)

Прогноз

Эта сводка был подготовлена 2 часа и 44 минут назад, в 07:40 UTC
Прогноз действительный с 23-го 09 UTC до 23-го 18 UTC
Ветер 9 Узел от восточный
Видимость 10 км и более
Нет облачности ниже 1500 м, и нет кучево-дождевой облачности
изменения
С 23-го 12 UTC до 23-го 13 UTC
небольшая облачность на высоте 3600 фута

TAF: LTCM 230740Z 2309/2318 10009KT CAVOK BECMG 2312/2313 FEW036

Метеонаблюдения и прогнозы для более 4000 аэропортов (сводки METAR и TAF).

Имеющиеся станции представлены на карте желтыми и красными точками.

Чтобы увидеть название станции, наведите на нее мышь.

Затем щелкните, чтобы увидеть метеонаблюдения и метеопрогнозы.

Управление картой: чтобы увеличить масштаб, щелкните зеленые кнопки с черным крестиком; чтобы уменьшить масштаб, щелкните зеленую кнопку с тире; для просмотра соседних карт щелкайте зеленые стрелки.


METAR-TAF: